AVA9431 SKRG-SKCL
Flight info
| Callsign | AVA9431 |
|---|---|
| Flight time | 0h 31m |
| Altitude | 22000 |
| Route | ISVON2B ISVON W3 ULQ ULQ4E |
| Aircraft | A320/M-SDE3FGHIRWY/LB1 |
Departure
| Time | 2026-05-06 17:01 |
|---|---|
| Airport | Jose Maria Córdova International Airport (SKRG) |
Arrival
| Time | 2026-05-06 17:32 |
|---|---|
| Airport | Alfonso Bonilla Aragon International Airport (SKCL) |
| Time | Latitude | Longitude | Altitude | Speed | Heading |
|---|---|---|---|---|---|
| 2026-05-06 16:31 | 6.17070 | -75.42695 | 7016 ft | 0 kts | 294° |
| 2026-05-06 16:43 | 6.17066 | -75.42684 | 7016 ft | 3 kts | 301° |
| 2026-05-06 16:44 | 6.17052 | -75.42668 | 7016 ft | 3 kts | 334° |
| 2026-05-06 16:44 | 6.17039 | -75.42663 | 7021 ft | 3 kts | 0° |
| 2026-05-06 16:44 | 6.17018 | -75.42668 | 7016 ft | 3 kts | 30° |
| 2026-05-06 16:44 | 6.17008 | -75.42674 | 7016 ft | 0 kts | 37° |
| 2026-05-06 16:48 | 6.17011 | -75.42672 | 7016 ft | 2 kts | 37° |
| 2026-05-06 16:48 | 6.17034 | -75.42654 | 7017 ft | 6 kts | 38° |
| 2026-05-06 16:49 | 6.17072 | -75.42625 | 7016 ft | 8 kts | 34° |
| 2026-05-06 16:49 | 6.17133 | -75.42616 | 7016 ft | 10 kts | 356° |
| 2026-05-06 16:49 | 6.17191 | -75.42603 | 7021 ft | 8 kts | 57° |
| 2026-05-06 16:49 | 6.17192 | -75.42564 | 7017 ft | 5 kts | 92° |
| 2026-05-06 16:50 | 6.17191 | -75.42521 | 7017 ft | 8 kts | 90° |
| 2026-05-06 16:50 | 6.17227 | -75.42488 | 7017 ft | 9 kts | 4° |
| 2026-05-06 16:50 | 6.17303 | -75.42488 | 7018 ft | 13 kts | 359° |
| 2026-05-06 16:50 | 6.17402 | -75.42488 | 7021 ft | 16 kts | 1° |
| 2026-05-06 16:51 | 6.17516 | -75.42489 | 7023 ft | 16 kts | 359° |
| 2026-05-06 16:51 | 6.17622 | -75.42491 | 7020 ft | 15 kts | 359° |
| 2026-05-06 16:51 | 6.17717 | -75.42492 | 7023 ft | 13 kts | 359° |
| 2026-05-06 16:51 | 6.17795 | -75.42492 | 7024 ft | 10 kts | 359° |
| 2026-05-06 16:52 | 6.17851 | -75.42493 | 7027 ft | 6 kts | 359° |
| 2026-05-06 16:52 | 6.17884 | -75.42493 | 7025 ft | 3 kts | 359° |
| 2026-05-06 16:52 | 6.17897 | -75.42493 | 7026 ft | 1 kts | 359° |
| 2026-05-06 16:52 | 6.17898 | -75.42493 | 7026 ft | 0 kts | 359° |
| 2026-05-06 16:53 | 6.17904 | -75.42493 | 7026 ft | 2 kts | 360° |
| 2026-05-06 16:53 | 6.17929 | -75.42493 | 7027 ft | 5 kts | 1° |
| 2026-05-06 16:53 | 6.17975 | -75.42492 | 7027 ft | 7 kts | 1° |
| 2026-05-06 16:53 | 6.18012 | -75.42482 | 7028 ft | 5 kts | 42° |
| 2026-05-06 16:54 | 6.18023 | -75.42443 | 7029 ft | 7 kts | 88° |
| 2026-05-06 16:54 | 6.18023 | -75.42426 | 7029 ft | 0 kts | 89° |
| 2026-05-06 16:55 | 6.18023 | -75.42425 | 7029 ft | 1 kts | 89° |
| 2026-05-06 16:59 | 6.18023 | -75.42416 | 7029 ft | 6 kts | 89° |
| 2026-05-06 16:59 | 6.18024 | -75.42344 | 7029 ft | 7 kts | 89° |
| 2026-05-06 16:59 | 6.18010 | -75.42325 | 7029 ft | 3 kts | 166° |
| 2026-05-06 17:00 | 6.17933 | -75.42321 | 7027 ft | 30 kts | 179° |
| 2026-05-06 17:00 | 6.17457 | -75.42319 | 7023 ft | 102 kts | 179° |
| 2026-05-06 17:00 | 6.16563 | -75.42313 | 6999 ft | 157 kts | 179° |
| 2026-05-06 17:00 | 6.15326 | -75.42309 | 7305 ft | 179 kts | 179° |
| 2026-05-06 17:01 | 6.14105 | -75.42318 | 8103 ft | 178 kts | 180° |
| 2026-05-06 17:01 | 6.12850 | -75.42329 | 8721 ft | 180 kts | 179° |
| 2026-05-06 17:01 | 6.11594 | -75.42325 | 9346 ft | 180 kts | 178° |
| 2026-05-06 17:01 | 6.10323 | -75.42321 | 9922 ft | 180 kts | 179° |
| 2026-05-06 17:02 | 6.09063 | -75.42320 | 10287 ft | 193 kts | 179° |
| 2026-05-06 17:02 | 6.07650 | -75.42316 | 10590 ft | 212 kts | 180° |
| 2026-05-06 17:02 | 6.06197 | -75.42666 | 10977 ft | 223 kts | 206° |
| 2026-05-06 17:02 | 6.04862 | -75.43661 | 11192 ft | 249 kts | 215° |
| 2026-05-06 17:03 | 6.03267 | -75.44393 | 11486 ft | 267 kts | 188° |
| 2026-05-06 17:03 | 6.01349 | -75.44673 | 11801 ft | 290 kts | 189° |
| 2026-05-06 17:03 | 5.99343 | -75.45146 | 12395 ft | 301 kts | 193° |
| 2026-05-06 17:03 | 5.97311 | -75.45726 | 13105 ft | 306 kts | 194° |
| 2026-05-06 17:04 | 5.95251 | -75.46333 | 13808 ft | 311 kts | 194° |
| 2026-05-06 17:04 | 5.93158 | -75.46938 | 14509 ft | 315 kts | 193° |
| 2026-05-06 17:04 | 5.91032 | -75.47534 | 15174 ft | 319 kts | 194° |
| 2026-05-06 17:04 | 5.88889 | -75.48149 | 15803 ft | 323 kts | 194° |
| 2026-05-06 17:05 | 5.86713 | -75.48778 | 16439 ft | 327 kts | 194° |
| 2026-05-06 17:05 | 5.84510 | -75.49411 | 17050 ft | 332 kts | 194° |
| 2026-05-06 17:05 | 5.82219 | -75.50066 | 17213 ft | 353 kts | 194° |
| 2026-05-06 17:05 | 5.79795 | -75.50756 | 17377 ft | 370 kts | 193° |
| 2026-05-06 17:06 | 5.77289 | -75.51468 | 17820 ft | 377 kts | 193° |
| 2026-05-06 17:06 | 5.74745 | -75.52191 | 18339 ft | 382 kts | 193° |
| 2026-05-06 17:06 | 5.72171 | -75.52918 | 18908 ft | 385 kts | 193° |
| 2026-05-06 17:06 | 5.69577 | -75.53650 | 19429 ft | 389 kts | 194° |
| 2026-05-06 17:07 | 5.66960 | -75.54388 | 19985 ft | 393 kts | 194° |
| 2026-05-06 17:07 | 5.64318 | -75.55132 | 20522 ft | 396 kts | 194° |
| 2026-05-06 17:07 | 5.61655 | -75.55885 | 21040 ft | 399 kts | 194° |
| 2026-05-06 17:07 | 5.58967 | -75.56644 | 21517 ft | 402 kts | 194° |
| 2026-05-06 17:08 | 5.56266 | -75.57409 | 21991 ft | 405 kts | 194° |
| 2026-05-06 17:08 | 5.53540 | -75.58180 | 22248 ft | 408 kts | 194° |
| 2026-05-06 17:08 | 5.50842 | -75.58941 | 22299 ft | 395 kts | 194° |
| 2026-05-06 17:08 | 5.48219 | -75.59683 | 22284 ft | 389 kts | 194° |
| 2026-05-06 17:09 | 5.45623 | -75.60418 | 22281 ft | 387 kts | 194° |
| 2026-05-06 17:09 | 5.43032 | -75.61149 | 22282 ft | 386 kts | 194° |
| 2026-05-06 17:09 | 5.40444 | -75.61880 | 22283 ft | 386 kts | 194° |
| 2026-05-06 17:09 | 5.37874 | -75.62673 | 22284 ft | 387 kts | 197° |
| 2026-05-06 17:10 | 5.35324 | -75.63544 | 22288 ft | 387 kts | 198° |
| 2026-05-06 17:10 | 5.32822 | -75.64445 | 22291 ft | 387 kts | 198° |
| 2026-05-06 17:10 | 5.30294 | -75.65368 | 22294 ft | 387 kts | 198° |
| 2026-05-06 17:10 | 5.27762 | -75.66285 | 22290 ft | 387 kts | 198° |
| 2026-05-06 17:11 | 5.25226 | -75.67188 | 22292 ft | 387 kts | 198° |
| 2026-05-06 17:11 | 5.22688 | -75.68078 | 22289 ft | 386 kts | 197° |
| 2026-05-06 17:11 | 5.20148 | -75.68960 | 22286 ft | 386 kts | 197° |
| 2026-05-06 17:11 | 5.17604 | -75.69841 | 22277 ft | 387 kts | 197° |
| 2026-05-06 17:12 | 5.15062 | -75.70724 | 22271 ft | 387 kts | 197° |
| 2026-05-06 17:12 | 5.12518 | -75.71610 | 22266 ft | 387 kts | 197° |
| 2026-05-06 17:12 | 5.09976 | -75.72496 | 22260 ft | 387 kts | 198° |
| 2026-05-06 17:12 | 5.07460 | -75.73548 | 22252 ft | 401 kts | 204° |
| 2026-05-06 17:13 | 5.04894 | -75.74790 | 22233 ft | 418 kts | 205° |
| 2026-05-06 17:13 | 5.02238 | -75.76112 | 22162 ft | 435 kts | 205° |
| 2026-05-06 17:13 | 4.99495 | -75.77498 | 22135 ft | 448 kts | 205° |
| 2026-05-06 17:13 | 4.96682 | -75.78928 | 22167 ft | 459 kts | 205° |
| 2026-05-06 17:14 | 4.93800 | -75.80388 | 22150 ft | 469 kts | 205° |
| 2026-05-06 17:14 | 4.90873 | -75.81863 | 22146 ft | 472 kts | 205° |
| 2026-05-06 17:14 | 4.87930 | -75.83341 | 22139 ft | 473 kts | 205° |
| 2026-05-06 17:14 | 4.84980 | -75.84817 | 22119 ft | 474 kts | 205° |
| 2026-05-06 17:15 | 4.82029 | -75.86289 | 22115 ft | 474 kts | 205° |
| 2026-05-06 17:15 | 4.79074 | -75.87761 | 22099 ft | 474 kts | 205° |
| 2026-05-06 17:15 | 4.76118 | -75.89229 | 22075 ft | 474 kts | 205° |
| 2026-05-06 17:15 | 4.73160 | -75.90695 | 22070 ft | 474 kts | 205° |
| 2026-05-06 17:16 | 4.70202 | -75.92158 | 22063 ft | 474 kts | 205° |
| 2026-05-06 17:16 | 4.67239 | -75.93624 | 22061 ft | 474 kts | 205° |
| 2026-05-06 17:16 | 4.64280 | -75.95091 | 22064 ft | 474 kts | 205° |
| 2026-05-06 17:16 | 4.61362 | -75.96538 | 22063 ft | 474 kts | 205° |
| 2026-05-06 17:17 | 4.58409 | -75.98001 | 22088 ft | 474 kts | 205° |
| 2026-05-06 17:17 | 4.55472 | -75.99454 | 21535 ft | 468 kts | 205° |
| 2026-05-06 17:17 | 4.52569 | -76.00890 | 20769 ft | 463 kts | 204° |
| 2026-05-06 17:17 | 4.49694 | -76.02310 | 19954 ft | 459 kts | 204° |
| 2026-05-06 17:18 | 4.46821 | -76.03725 | 18943 ft | 461 kts | 204° |
| 2026-05-06 17:18 | 4.43953 | -76.05137 | 18121 ft | 458 kts | 204° |
| 2026-05-06 17:18 | 4.41109 | -76.06540 | 17355 ft | 453 kts | 204° |
| 2026-05-06 17:18 | 4.38296 | -76.07930 | 16643 ft | 448 kts | 205° |
| 2026-05-06 17:19 | 4.35522 | -76.09306 | 15973 ft | 442 kts | 205° |
| 2026-05-06 17:19 | 4.32781 | -76.10669 | 15271 ft | 437 kts | 205° |
| 2026-05-06 17:19 | 4.30081 | -76.12010 | 14829 ft | 426 kts | 205° |
| 2026-05-06 17:19 | 4.27486 | -76.13296 | 14704 ft | 407 kts | 205° |
| 2026-05-06 17:20 | 4.25004 | -76.14525 | 14609 ft | 390 kts | 205° |
| 2026-05-06 17:20 | 4.22619 | -76.15702 | 14497 ft | 375 kts | 205° |
| 2026-05-06 17:20 | 4.20329 | -76.16834 | 14374 ft | 359 kts | 205° |
| 2026-05-06 17:20 | 4.18124 | -76.17925 | 14249 ft | 348 kts | 205° |
| 2026-05-06 17:21 | 4.15998 | -76.18979 | 14111 ft | 331 kts | 205° |
| 2026-05-06 17:21 | 4.13978 | -76.19980 | 13720 ft | 319 kts | 205° |
| 2026-05-06 17:21 | 4.12007 | -76.20957 | 13155 ft | 314 kts | 205° |
| 2026-05-06 17:21 | 4.10067 | -76.21919 | 12578 ft | 309 kts | 205° |
| 2026-05-06 17:22 | 4.08135 | -76.22837 | 11963 ft | 305 kts | 203° |
| 2026-05-06 17:22 | 4.06195 | -76.23657 | 11348 ft | 301 kts | 201° |
| 2026-05-06 17:22 | 4.04260 | -76.24423 | 10739 ft | 297 kts | 201° |
| 2026-05-06 17:22 | 4.02347 | -76.25167 | 10120 ft | 292 kts | 200° |
| 2026-05-06 17:23 | 4.00460 | -76.25905 | 9495 ft | 289 kts | 201° |
| 2026-05-06 17:23 | 3.98608 | -76.26638 | 8861 ft | 285 kts | 201° |
| 2026-05-06 17:23 | 3.96775 | -76.27370 | 8237 ft | 282 kts | 201° |
| 2026-05-06 17:23 | 3.95014 | -76.28075 | 8026 ft | 262 kts | 201° |
| 2026-05-06 17:24 | 3.93395 | -76.28724 | 7996 ft | 240 kts | 201° |
| 2026-05-06 17:24 | 3.91871 | -76.29337 | 7996 ft | 232 kts | 202° |
| 2026-05-06 17:24 | 3.90397 | -76.29933 | 7996 ft | 226 kts | 202° |
| 2026-05-06 17:24 | 3.88941 | -76.30522 | 7998 ft | 225 kts | 201° |
| 2026-05-06 17:25 | 3.87489 | -76.31112 | 7996 ft | 225 kts | 201° |
| 2026-05-06 17:25 | 3.86040 | -76.31702 | 7998 ft | 225 kts | 202° |
| 2026-05-06 17:25 | 3.84587 | -76.32291 | 7996 ft | 226 kts | 202° |
| 2026-05-06 17:25 | 3.83138 | -76.32878 | 7993 ft | 222 kts | 201° |
| 2026-05-06 17:26 | 3.81745 | -76.33392 | 8007 ft | 212 kts | 193° |
| 2026-05-06 17:26 | 3.80294 | -76.33664 | 7769 ft | 212 kts | 190° |
| 2026-05-06 17:26 | 3.78838 | -76.33914 | 7505 ft | 213 kts | 189° |
| 2026-05-06 17:26 | 3.77379 | -76.34164 | 7255 ft | 212 kts | 190° |
| 2026-05-06 17:27 | 3.75928 | -76.34415 | 7021 ft | 212 kts | 190° |
| 2026-05-06 17:27 | 3.74491 | -76.34664 | 6808 ft | 206 kts | 190° |
| 2026-05-06 17:27 | 3.73106 | -76.34901 | 6570 ft | 198 kts | 190° |
| 2026-05-06 17:27 | 3.71769 | -76.35132 | 6356 ft | 192 kts | 190° |
| 2026-05-06 17:28 | 3.70508 | -76.35352 | 6088 ft | 177 kts | 190° |
| 2026-05-06 17:28 | 3.69358 | -76.35553 | 5867 ft | 159 kts | 191° |
| 2026-05-06 17:28 | 3.68298 | -76.35739 | 5651 ft | 152 kts | 188° |
| 2026-05-06 17:28 | 3.67262 | -76.35920 | 5467 ft | 152 kts | 189° |
| 2026-05-06 17:29 | 3.66227 | -76.36099 | 5258 ft | 149 kts | 189° |
| 2026-05-06 17:29 | 3.65209 | -76.36276 | 5055 ft | 149 kts | 188° |
| 2026-05-06 17:29 | 3.64189 | -76.36454 | 4864 ft | 149 kts | 188° |
| 2026-05-06 17:29 | 3.63163 | -76.36629 | 4668 ft | 150 kts | 189° |
| 2026-05-06 17:30 | 3.62136 | -76.36804 | 4471 ft | 149 kts | 189° |
| 2026-05-06 17:30 | 3.61448 | -76.36923 | 4334 ft | 149 kts | 189° |
| 2026-05-06 17:30 | 3.60437 | -76.37099 | 4148 ft | 149 kts | 191° |
| 2026-05-06 17:30 | 3.59417 | -76.37272 | 3945 ft | 148 kts | 189° |
| 2026-05-06 17:31 | 3.58402 | -76.37459 | 3756 ft | 148 kts | 192° |
| 2026-05-06 17:31 | 3.57387 | -76.37643 | 3560 ft | 148 kts | 188° |
| 2026-05-06 17:31 | 3.56371 | -76.37810 | 3362 ft | 148 kts | 190° |
| 2026-05-06 17:31 | 3.55363 | -76.37986 | 3181 ft | 143 kts | 189° |
| 2026-05-06 17:32 | 3.54517 | -76.38131 | 3165 ft | 99 kts | 189° |
| 2026-05-06 17:32 | 3.53985 | -76.38224 | 3167 ft | 64 kts | 190° |
| 2026-05-06 17:32 | 3.53652 | -76.38282 | 3163 ft | 31 kts | 189° |
| 2026-05-06 17:32 | 3.53546 | -76.38304 | 3161 ft | 10 kts | 206° |
| 2026-05-06 17:33 | 3.53529 | -76.38358 | 3161 ft | 8 kts | 279° |
| 2026-05-06 17:33 | 3.53538 | -76.38407 | 3161 ft | 6 kts | 279° |
| 2026-05-06 17:33 | 3.53544 | -76.38444 | 3161 ft | 4 kts | 280° |
| 2026-05-06 17:33 | 3.53564 | -76.38459 | 3161 ft | 5 kts | 353° |
| 2026-05-06 17:34 | 3.53615 | -76.38460 | 3162 ft | 8 kts | 344° |
| 2026-05-06 17:34 | 3.53662 | -76.38490 | 3163 ft | 2 kts | 323° |
| 2026-05-06 17:35 | 3.53673 | -76.38498 | 3164 ft | 6 kts | 323° |
| 2026-05-06 17:35 | 3.53742 | -76.38548 | 3165 ft | 14 kts | 326° |
| 2026-05-06 17:36 | 3.53883 | -76.38644 | 3165 ft | 6 kts | 324° |
| 2026-05-06 17:36 | 3.53907 | -76.38672 | 3163 ft | 5 kts | 292° |
| 2026-05-06 17:36 | 3.53911 | -76.38698 | 3163 ft | 3 kts | 279° |
| 2026-05-06 17:36 | 3.53909 | -76.38714 | 3163 ft | 1 kts | 246° |
| 2026-05-06 17:37 | 3.53895 | -76.38724 | 3164 ft | 4 kts | 210° |
| 2026-05-06 17:37 | 3.53873 | -76.38733 | 3163 ft | 3 kts | 201° |
| 2026-05-06 17:37 | 3.53861 | -76.38738 | 3163 ft | 0 kts | 201° |
| 2026-05-06 17:38 | 3.53857 | -76.38739 | 3163 ft | 1 kts | 201° |
| 2026-05-06 17:38 | 3.53856 | -76.38739 | 3163 ft | 0 kts | 201° |